X  Schlie├čen Metar Luftfahrt Wetterdaten     EBBR Brussels Airport
Temperatur
4°C Temperatur
2°C Taupunkt
87% Feuchtigkeit



Wind
26 KM/H
16 MPH
7 M/S
14 KTS



300°
WNW
Aktuelle Wetterlage

Leicht  Regen Leicht Regen
Luftdruck 985.92 (hPa) - 29.11 (inHg)
Sichtweite 3.7 (Meile) - 6 (km)
Flughafen
Flughafen Code EBBR

Position : Brussels Airport
Entfernung: 14 (km)

Metar:
EBBR 220020Z 30014KT 6000 -RA SCT008 BKN011 04/02 Q0986 BECMG 24010KT SCT012 BKN030

Zeit: 2021-01-22 01:20 CET